createdAt,value
2024-01-14T00:01:28.659Z,28.77
2024-01-14T00:03:38.220Z,32.08
2024-01-14T00:05:43.246Z,33.08
2024-01-14T00:07:48.366Z,30.02
2024-01-14T00:09:53.368Z,36.78
2024-01-14T00:11:58.281Z,36.90
2024-01-14T00:14:03.299Z,38.85
2024-01-14T00:16:08.719Z,45.78
2024-01-14T00:18:13.882Z,38.60
2024-01-14T00:20:24.493Z,36.25
2024-01-14T00:22:29.564Z,43.85
2024-01-14T00:24:31.889Z,40.97
2024-01-14T00:26:36.784Z,35.13
2024-01-14T00:28:41.665Z,33.28
2024-01-14T00:30:46.783Z,35.35
2024-01-14T00:32:51.964Z,38.83
2024-01-14T00:34:56.955Z,34.72
2024-01-14T00:37:04.664Z,35.97
2024-01-14T00:39:10.209Z,29.33
2024-01-14T00:41:16.271Z,24.45
2024-01-14T00:43:21.291Z,32.05
2024-01-14T00:45:26.249Z,33.40
2024-01-14T00:47:31.978Z,32.70
2024-01-14T00:49:37.167Z,33.97
2024-01-14T00:51:42.349Z,35.45
2024-01-14T00:53:49.833Z,26.85
2024-01-14T00:55:55.473Z,24.63
2024-01-14T00:58:00.377Z,30.48
2024-01-14T01:00:05.460Z,25.88
2024-01-14T01:02:11.935Z,30.92
2024-01-14T01:04:16.948Z,31.20
2024-01-14T01:06:21.970Z,27.88
2024-01-14T01:08:27.185Z,35.75
2024-01-14T01:10:36.046Z,25.40
2024-01-14T01:12:41.393Z,20.02
2024-01-14T01:14:49.140Z,20.05
2024-01-14T01:16:54.147Z,23.92
2024-01-14T01:18:56.617Z,32.30
2024-01-14T01:21:02.516Z,28.67
2024-01-14T01:23:07.789Z,24.40
2024-01-14T01:25:11.866Z,30.25
2024-01-14T01:27:19.494Z,22.77
2024-01-14T01:29:24.415Z,29.23
2024-01-14T01:31:34.758Z,20.45
2024-01-14T01:33:44.252Z,25.23
2024-01-14T01:35:49.340Z,19.92
2024-01-14T01:37:54.261Z,20.30
2024-01-14T01:39:57.541Z,22.10
2024-01-14T01:42:02.612Z,15.98
2024-01-14T01:44:10.984Z,12.05
2024-01-14T01:46:16.240Z,14.57
2024-01-14T01:48:23.251Z,16.75
2024-01-14T01:50:29.262Z,9.82
2024-01-14T01:52:32.983Z,18.55
2024-01-14T01:54:39.481Z,18.40
2024-01-14T01:56:42.734Z,24.13
2024-01-14T01:58:47.958Z,33.38
2024-01-14T02:00:56.159Z,28.05
2024-01-14T02:03:01.205Z,33.70
2024-01-14T02:05:06.432Z,38.83
2024-01-14T02:07:11.560Z,35.40
2024-01-14T02:09:16.994Z,41.00
2024-01-14T02:11:22.135Z,37.55
2024-01-14T02:13:27.072Z,37.65
2024-01-14T02:15:32.159Z,36.08
2024-01-14T02:17:37.881Z,37.45
2024-01-14T02:19:43.048Z,24.48
2024-01-14T02:21:50.349Z,22.85
2024-01-14T02:24:05.456Z,19.70
2024-01-14T02:26:13.171Z,18.95
2024-01-14T02:28:21.273Z,20.17
2024-01-14T02:30:27.675Z,19.55
2024-01-14T02:32:35.373Z,25.90
2024-01-14T02:34:40.855Z,29.50
2024-01-14T02:36:46.177Z,41.38
2024-01-14T02:38:51.090Z,44.22
2024-01-14T02:40:55.932Z,34.75
2024-01-14T02:43:03.402Z,45.70
2024-01-14T02:45:09.302Z,46.60
2024-01-14T02:47:14.424Z,52.83
2024-01-14T02:49:19.747Z,45.80
2024-01-14T02:51:25.212Z,46.40
2024-01-14T02:53:30.033Z,50.22
2024-01-14T02:55:34.909Z,43.03
2024-01-14T02:57:40.703Z,42.33
2024-01-14T02:59:48.261Z,46.97
2024-01-14T03:01:53.149Z,43.42
2024-01-14T03:03:58.113Z,41.25
2024-01-14T03:06:04.466Z,44.55
2024-01-14T03:08:10.497Z,41.40
2024-01-14T03:10:18.551Z,37.45
2024-01-14T03:12:23.542Z,39.42
2024-01-14T03:14:28.477Z,35.80
2024-01-14T03:16:36.314Z,30.95
2024-01-14T03:18:41.313Z,37.63
2024-01-14T03:20:46.321Z,31.50
2024-01-14T03:22:51.247Z,36.65
2024-01-14T03:24:56.050Z,41.33
2024-01-14T03:27:01.142Z,44.30
2024-01-14T03:29:06.096Z,49.75
2024-01-14T03:31:09.219Z,51.58
2024-01-14T03:33:16.924Z,42.05
2024-01-14T03:35:22.031Z,46.88
2024-01-14T03:37:26.984Z,44.30
2024-01-14T03:39:32.106Z,46.20
2024-01-14T03:41:37.680Z,47.00
2024-01-14T03:43:45.022Z,46.50
2024-01-14T03:45:49.967Z,47.83
2024-01-14T03:47:57.943Z,45.03
2024-01-14T03:50:06.240Z,46.33
2024-01-14T03:52:11.670Z,59.97
2024-01-14T03:54:16.696Z,41.60
2024-01-14T03:56:21.647Z,39.60
2024-01-14T03:58:23.896Z,46.75
2024-01-14T04:00:28.889Z,42.55
2024-01-14T04:02:31.379Z,42.55
2024-01-14T04:04:36.351Z,41.42
2024-01-14T04:06:43.972Z,52.90
2024-01-14T04:08:48.983Z,44.28
2024-01-14T04:10:53.884Z,47.45
2024-01-14T04:12:58.772Z,44.55
2024-01-14T04:15:03.829Z,39.97
2024-01-14T04:17:06.079Z,34.30
2024-01-14T04:19:11.757Z,35.20
2024-01-14T04:21:24.811Z,34.03
2024-01-14T04:25:37.397Z,32.20
2024-01-14T04:27:43.029Z,39.70
2024-01-14T04:29:48.103Z,35.53
2024-01-14T04:31:52.893Z,38.80
2024-01-14T04:33:58.302Z,34.70
2024-01-14T04:36:03.521Z,42.40
2024-01-14T04:38:08.742Z,39.75
2024-01-14T04:40:16.449Z,31.65
2024-01-14T04:42:21.556Z,35.28
2024-01-14T04:44:23.920Z,32.22
2024-01-14T04:46:28.838Z,40.78
2024-01-14T04:48:33.998Z,43.03
2024-01-14T04:50:44.314Z,32.53
2024-01-14T04:52:49.266Z,33.95
2024-01-14T04:54:54.140Z,38.67
2024-01-14T04:56:59.589Z,47.85
2024-01-14T04:59:04.468Z,41.22
2024-01-14T05:01:09.500Z,40.60
2024-01-14T05:03:12.034Z,31.95
2024-01-14T05:05:18.014Z,46.20
2024-01-14T05:07:23.086Z,47.75
2024-01-14T05:09:25.628Z,50.15
2024-01-14T05:11:30.766Z,37.70
2024-01-14T05:13:38.340Z,47.85
2024-01-14T05:15:43.394Z,51.17
2024-01-14T05:17:48.364Z,41.78
2024-01-14T05:19:53.300Z,46.78
2024-01-14T05:21:55.967Z,47.90
2024-01-14T05:24:01.076Z,47.58
2024-01-14T05:26:08.026Z,38.17
2024-01-14T05:28:18.915Z,38.28
2024-01-14T05:30:26.671Z,48.03
2024-01-14T05:32:31.770Z,44.25
2024-01-14T05:34:36.688Z,50.38
2024-01-14T05:36:41.788Z,48.20
2024-01-14T05:38:44.550Z,39.33
2024-01-14T05:42:55.156Z,39.47
2024-01-14T05:44:57.456Z,40.95
2024-01-14T05:47:05.073Z,48.13
2024-01-14T05:49:12.169Z,51.15
2024-01-14T05:51:17.481Z,54.55
2024-01-14T05:53:23.143Z,50.70
2024-01-14T05:55:28.169Z,43.70
2024-01-14T05:57:34.308Z,45.13
2024-01-14T05:59:39.284Z,54.47
2024-01-14T06:01:41.857Z,48.58
2024-01-14T06:03:49.661Z,47.53
2024-01-14T06:05:54.602Z,47.47
2024-01-14T06:07:59.743Z,47.75
2024-01-14T06:10:05.072Z,52.40
2024-01-14T06:12:10.871Z,49.75
2024-01-14T06:14:16.554Z,58.70
2024-01-14T06:16:21.625Z,40.25
2024-01-14T06:18:26.720Z,47.20
2024-01-14T06:20:34.327Z,38.25
2024-01-14T06:22:39.313Z,45.42
2024-01-14T06:24:44.484Z,50.67
2024-01-14T06:26:47.330Z,39.60
2024-01-14T06:30:54.403Z,37.75
2024-01-14T06:32:59.642Z,46.60
2024-01-14T06:35:02.031Z,46.33
2024-01-14T06:37:09.643Z,44.47
2024-01-14T06:39:14.672Z,43.40
2024-01-14T06:41:25.048Z,41.35
2024-01-14T06:43:29.954Z,39.92
2024-01-14T06:45:34.948Z,42.40
2024-01-14T06:47:39.887Z,43.95
2024-01-14T06:49:46.337Z,43.83
2024-01-14T06:51:53.993Z,48.53
2024-01-14T06:54:01.472Z,39.80
2024-01-14T06:56:07.644Z,37.97
2024-01-14T06:58:14.503Z,44.30
2024-01-14T07:00:19.937Z,39.85
2024-01-14T07:02:24.885Z,40.40
2024-01-14T07:04:29.979Z,40.80
2024-01-14T07:06:32.236Z,46.83
2024-01-14T07:08:37.748Z,50.78
2024-01-14T07:10:45.698Z,48.90
2024-01-14T07:12:50.694Z,46.05
2024-01-14T07:14:55.712Z,41.50
2024-01-14T07:17:00.681Z,45.55
2024-01-14T07:19:06.711Z,48.42
2024-01-14T07:21:14.487Z,43.88
2024-01-14T07:23:42.374Z,34.13
2024-01-14T07:25:47.252Z,44.67
2024-01-14T07:27:52.331Z,56.25
2024-01-14T07:29:57.267Z,43.55
2024-01-14T07:32:05.219Z,39.67
2024-01-14T07:34:10.203Z,42.45
2024-01-14T07:36:15.317Z,40.53
2024-01-14T07:38:20.273Z,48.05
2024-01-14T07:40:25.147Z,49.78
2024-01-14T07:42:33.404Z,48.53
2024-01-14T07:44:36.146Z,41.20
2024-01-14T07:46:41.457Z,42.80
2024-01-14T07:48:46.649Z,42.15
2024-01-14T07:50:51.644Z,36.30
2024-01-14T07:52:56.561Z,41.08
2024-01-14T07:55:01.717Z,50.03
2024-01-14T07:57:07.822Z,48.58
2024-01-14T07:59:16.521Z,41.83
2024-01-14T08:01:21.578Z,54.20
2024-01-14T08:03:26.617Z,44.28
2024-01-14T08:05:31.748Z,48.42
2024-01-14T08:07:37.569Z,47.97
2024-01-14T08:09:43.608Z,43.33
2024-01-14T08:11:49.212Z,55.20
2024-01-14T08:13:53.998Z,41.30
2024-01-14T08:16:03.388Z,52.88
2024-01-14T08:18:10.020Z,44.83
2024-01-14T08:20:18.548Z,50.65
2024-01-14T08:22:23.929Z,51.97
2024-01-14T08:24:28.978Z,54.25
2024-01-14T08:26:36.882Z,44.03
2024-01-14T08:28:41.766Z,45.47
2024-01-14T08:30:47.107Z,54.75
2024-01-14T08:32:54.741Z,40.13
2024-01-14T08:35:00.089Z,47.75
2024-01-14T08:37:05.095Z,50.13
2024-01-14T08:39:10.583Z,49.83
2024-01-14T08:41:16.290Z,46.78
2024-01-14T08:43:21.325Z,47.42
2024-01-14T08:45:26.327Z,59.55
2024-01-14T08:47:31.458Z,39.00
2024-01-14T08:49:39.194Z,44.38
2024-01-14T08:51:44.377Z,48.50
2024-01-14T08:53:49.473Z,56.88
2024-01-14T08:55:55.325Z,32.50
2024-01-14T08:58:00.651Z,48.47
2024-01-14T09:00:06.218Z,38.33
2024-01-14T09:02:08.772Z,42.55
2024-01-14T09:04:14.127Z,45.50
2024-01-14T09:06:22.067Z,40.45
2024-01-14T09:08:27.120Z,54.65
2024-01-14T09:10:32.566Z,49.42
2024-01-14T09:12:35.062Z,37.95
2024-01-14T09:14:40.628Z,33.20
2024-01-14T09:16:45.830Z,46.50
2024-01-14T09:18:50.882Z,49.58
2024-01-14T09:20:55.820Z,36.22
2024-01-14T09:23:03.320Z,42.80
2024-01-14T09:25:06.489Z,43.88
2024-01-14T09:27:11.762Z,42.00
2024-01-14T09:29:14.469Z,44.25
2024-01-14T09:31:19.434Z,44.10
2024-01-14T09:33:24.700Z,50.70
2024-01-14T09:35:29.881Z,42.20
2024-01-14T09:37:34.885Z,49.72
2024-01-14T09:39:42.876Z,40.83
2024-01-14T09:41:54.022Z,43.72
2024-01-14T09:44:01.279Z,51.15
2024-01-14T09:46:06.388Z,53.33
2024-01-14T09:48:17.529Z,47.67
2024-01-14T09:50:23.131Z,47.42
2024-01-14T09:52:28.880Z,42.58
2024-01-14T09:54:34.689Z,44.72
2024-01-14T09:56:41.915Z,43.38
2024-01-14T09:58:50.644Z,40.35
2024-01-14T10:00:59.176Z,50.85
2024-01-14T10:03:05.806Z,47.33
2024-01-14T10:05:11.937Z,51.80
2024-01-14T10:07:17.129Z,48.60
2024-01-14T10:09:19.955Z,48.20
2024-01-14T10:13:33.246Z,53.25
2024-01-14T10:15:45.673Z,47.80
2024-01-14T10:17:57.267Z,40.60
2024-01-14T10:20:02.364Z,50.38
2024-01-14T10:22:15.480Z,48.28
2024-01-14T10:24:23.097Z,56.85
2024-01-14T10:26:26.568Z,51.03
2024-01-14T10:28:38.978Z,48.25
2024-01-14T10:30:41.609Z,55.00
2024-01-14T10:33:17.908Z,50.78
2024-01-14T10:35:14.697Z,53.58
2024-01-14T10:37:21.329Z,51.53
2024-01-14T10:39:26.332Z,55.33
2024-01-14T10:41:31.420Z,51.60
2024-01-14T10:43:39.203Z,49.45
2024-01-14T10:45:44.445Z,49.40
2024-01-14T10:47:52.735Z,55.00
2024-01-14T10:50:02.263Z,41.65
2024-01-14T10:52:17.091Z,49.28
2024-01-14T10:54:31.288Z,54.47
2024-01-14T10:56:41.137Z,31.35
2024-01-14T10:58:49.541Z,48.67
2024-01-14T11:00:53.199Z,41.55
2024-01-14T11:02:59.187Z,35.67
2024-01-14T11:05:04.661Z,44.72
2024-01-14T11:07:08.428Z,38.97
2024-01-14T11:09:13.428Z,38.55
2024-01-14T11:11:20.767Z,38.20
2024-01-14T11:13:29.832Z,40.92
2024-01-14T11:15:42.892Z,40.05
2024-01-14T11:20:02.523Z,37.22
2024-01-14T11:22:32.612Z,37.10
2024-01-14T11:24:41.973Z,39.78
2024-01-14T11:26:45.266Z,44.60
2024-01-14T11:28:51.421Z,52.78
2024-01-14T11:30:57.542Z,46.03
2024-01-14T11:33:33.261Z,42.58
2024-01-14T11:35:38.859Z,40.17
2024-01-14T11:37:43.184Z,39.60
2024-01-14T11:39:48.698Z,49.15
2024-01-14T11:41:51.193Z,36.03
2024-01-14T11:44:01.869Z,51.30
2024-01-14T11:46:07.571Z,38.08
2024-01-14T11:48:15.962Z,41.33
2024-01-14T11:50:20.192Z,41.72
2024-01-14T11:52:26.882Z,48.00
2024-01-14T11:54:32.059Z,39.90
2024-01-14T11:56:37.529Z,47.47
2024-01-14T11:58:42.839Z,44.38
2024-01-14T12:00:49.946Z,46.20
2024-01-14T12:03:13.166Z,46.85
2024-01-14T12:05:20.325Z,34.70
2024-01-14T12:07:26.428Z,46.80
2024-01-14T12:09:32.412Z,34.75
2024-01-14T12:11:35.151Z,44.35
2024-01-14T12:15:55.853Z,30.85
2024-01-14T12:18:08.981Z,48.65
2024-01-14T12:20:15.733Z,39.17
2024-01-14T12:22:20.864Z,41.67
2024-01-14T12:24:26.304Z,35.45
2024-01-14T12:26:28.666Z,32.65
2024-01-14T12:28:33.818Z,32.20
2024-01-14T12:30:39.168Z,24.75
2024-01-14T12:32:41.626Z,32.92
2024-01-14T12:34:49.150Z,23.05
2024-01-14T12:36:55.107Z,25.40
2024-01-14T12:39:00.582Z,25.52
2024-01-14T12:41:06.302Z,23.15
2024-01-14T12:43:12.948Z,15.50
2024-01-14T12:45:15.845Z,26.95
2024-01-14T12:49:27.046Z,27.65
2024-01-14T12:51:34.897Z,18.92
2024-01-14T12:53:43.204Z,23.55
2024-01-14T12:55:46.271Z,25.85
2024-01-14T12:57:51.225Z,23.95
2024-01-14T12:59:56.474Z,21.00
2024-01-14T13:02:01.851Z,23.13
2024-01-14T13:04:07.719Z,26.90
2024-01-14T13:06:13.205Z,16.83
2024-01-14T13:08:21.382Z,20.33
2024-01-14T13:10:26.654Z,19.92
2024-01-14T13:12:31.670Z,25.73
2024-01-14T13:14:36.803Z,27.35
2024-01-14T13:16:53.469Z,26.40
2024-01-14T13:18:59.849Z,33.20
2024-01-14T13:21:04.880Z,42.58
2024-01-14T13:23:09.889Z,28.80
2024-01-14T13:25:17.935Z,40.85
2024-01-14T13:27:20.438Z,33.38
2024-01-14T13:29:25.515Z,31.38
2024-01-14T13:31:31.075Z,35.33
2024-01-14T13:33:36.884Z,28.73
2024-01-14T13:35:41.944Z,32.00
2024-01-14T13:37:48.663Z,33.10
2024-01-14T13:39:54.688Z,32.70
2024-01-14T13:42:02.681Z,32.88
2024-01-14T13:44:16.334Z,29.80
2024-01-14T13:46:24.903Z,35.80
2024-01-14T13:48:31.410Z,30.77
2024-01-14T13:50:38.000Z,34.17
2024-01-14T13:52:42.864Z,35.70
2024-01-14T13:54:45.843Z,30.25
2024-01-14T13:56:52.398Z,38.05
2024-01-14T13:59:00.653Z,29.33
2024-01-14T14:01:06.599Z,32.20
2024-01-14T14:03:14.091Z,31.95
2024-01-14T14:05:19.648Z,25.90
2024-01-14T14:07:26.754Z,30.30
2024-01-14T14:09:31.813Z,29.77
2024-01-14T14:11:34.880Z,36.70
2024-01-14T14:13:41.092Z,34.53
2024-01-14T14:15:48.683Z,27.33
2024-01-14T14:18:00.026Z,30.45
2024-01-14T14:20:12.080Z,28.15
2024-01-14T14:22:20.439Z,29.73
2024-01-14T14:24:25.751Z,26.88
2024-01-14T14:26:28.136Z,26.30
2024-01-14T14:28:32.955Z,25.38
2024-01-14T14:30:40.846Z,25.50
2024-01-14T14:32:48.867Z,30.88
2024-01-14T14:34:54.400Z,25.63
2024-01-14T14:36:59.466Z,24.77
2024-01-14T14:39:04.582Z,21.40
2024-01-14T14:41:20.519Z,16.15
2024-01-14T14:43:33.104Z,15.20
2024-01-14T14:45:38.306Z,16.52
2024-01-14T14:47:43.943Z,15.90
2024-01-14T14:49:52.037Z,12.98
2024-01-14T14:51:57.334Z,12.77
2024-01-14T14:54:02.459Z,7.65
2024-01-14T14:56:08.160Z,12.25
2024-01-14T14:58:13.219Z,13.00
2024-01-14T15:00:20.815Z,15.73
2024-01-14T15:02:26.258Z,20.48
2024-01-14T15:04:28.727Z,20.48
2024-01-14T15:06:36.582Z,19.80
2024-01-14T15:08:41.887Z,20.13
2024-01-14T15:10:48.948Z,20.75
2024-01-14T15:12:51.831Z,30.83
2024-01-14T15:15:00.724Z,25.67
2024-01-14T15:17:06.602Z,26.92
2024-01-14T15:19:13.259Z,28.02
2024-01-14T15:21:21.335Z,20.80
2024-01-14T15:23:29.691Z,24.85
2024-01-14T15:25:34.796Z,24.60
2024-01-14T15:27:39.879Z,19.20
2024-01-14T15:29:44.714Z,23.15
2024-01-14T15:31:50.545Z,20.17
2024-01-14T15:33:55.767Z,29.42
2024-01-14T15:36:00.631Z,20.88
2024-01-14T15:38:05.910Z,22.08
2024-01-14T15:40:18.048Z,17.63
2024-01-14T15:42:23.189Z,19.50
2024-01-14T15:44:28.088Z,19.00
2024-01-14T15:46:33.480Z,17.33
2024-01-14T15:48:40.831Z,5.53
2024-01-14T15:50:57.463Z,2.35
2024-01-14T15:53:08.779Z,4.45
2024-01-14T15:55:16.624Z,2.03
2024-01-14T15:57:19.151Z,2.45
2024-01-14T15:59:24.004Z,4.15
2024-01-14T16:01:29.615Z,1.75
2024-01-14T16:03:35.391Z,1.77
2024-01-14T16:05:40.432Z,3.20
2024-01-14T16:07:45.923Z,1.40
2024-01-14T16:09:50.896Z,2.95
2024-01-14T16:11:55.947Z,11.57
2024-01-14T16:14:01.124Z,4.03
2024-01-14T16:16:06.029Z,3.58
2024-01-14T16:18:14.367Z,5.55
2024-01-14T16:20:19.539Z,4.00
2024-01-14T16:22:24.787Z,3.30
2024-01-14T16:24:27.427Z,3.28
2024-01-14T16:26:32.347Z,1.58
2024-01-14T16:28:40.540Z,2.53
2024-01-14T16:30:50.200Z,4.80
2024-01-14T16:33:01.909Z,1.60
2024-01-14T16:35:08.056Z,4.20
2024-01-14T16:37:13.675Z,3.90
2024-01-14T16:39:19.060Z,7.13
2024-01-14T16:41:24.289Z,6.63
2024-01-14T16:43:29.625Z,5.85
2024-01-14T16:45:37.449Z,3.60
2024-01-14T16:47:43.567Z,4.22
2024-01-14T16:49:48.844Z,8.60
2024-01-14T16:51:54.385Z,4.18
2024-01-14T16:54:03.013Z,3.78
2024-01-14T16:56:10.485Z,4.53
2024-01-14T16:58:15.849Z,5.10
2024-01-14T17:00:24.772Z,4.32
2024-01-14T17:02:33.590Z,4.07
2024-01-14T17:04:39.424Z,3.75
2024-01-14T17:06:44.587Z,3.17
2024-01-14T17:08:50.296Z,6.60
2024-01-14T17:11:02.729Z,2.47
2024-01-14T17:13:10.173Z,6.13
2024-01-14T17:15:15.933Z,8.50
2024-01-14T17:17:21.706Z,4.22
2024-01-14T17:19:29.729Z,3.88
2024-01-14T17:21:36.315Z,2.67
2024-01-14T17:23:39.937Z,4.60
2024-01-14T17:25:50.280Z,4.97
2024-01-14T17:28:01.651Z,5.30
2024-01-14T17:30:07.286Z,3.03
2024-01-14T17:32:16.013Z,2.28
2024-01-14T17:34:22.491Z,2.17
2024-01-14T17:36:30.197Z,6.68
2024-01-14T17:38:36.276Z,1.80
2024-01-14T17:40:41.279Z,2.08
2024-01-14T17:42:46.908Z,3.22
2024-01-14T17:44:52.043Z,2.22
2024-01-14T17:46:57.399Z,6.68
2024-01-14T17:49:03.642Z,5.10
2024-01-14T17:51:10.104Z,4.78
2024-01-14T17:53:18.618Z,2.78
2024-01-14T17:55:21.255Z,3.20
2024-01-14T17:57:27.471Z,3.90
2024-01-14T17:59:32.698Z,4.00
2024-01-14T18:01:38.933Z,2.10
2024-01-14T18:03:42.608Z,3.00
2024-01-14T18:05:48.227Z,5.47
2024-01-14T18:07:54.015Z,1.25
2024-01-14T18:10:02.414Z,1.67
2024-01-14T18:12:09.215Z,4.40
2024-01-14T18:14:15.209Z,3.95
2024-01-14T18:16:21.278Z,4.82
2024-01-14T18:18:24.293Z,2.58
2024-01-14T18:20:29.789Z,3.35
2024-01-14T18:22:34.907Z,3.30
2024-01-14T18:24:40.338Z,4.50
2024-01-14T18:26:51.609Z,3.47
2024-01-14T18:28:56.516Z,2.30
2024-01-14T18:31:02.309Z,2.95
2024-01-14T18:33:12.158Z,4.32
2024-01-14T18:35:16.994Z,3.58
2024-01-14T18:37:21.979Z,2.63
2024-01-14T18:39:27.021Z,2.47
2024-01-14T18:41:29.417Z,0.98
2024-01-14T18:43:36.941Z,3.65
2024-01-14T18:45:42.100Z,0.88
2024-01-14T18:47:47.524Z,2.42
2024-01-14T18:49:52.503Z,4.38
2024-01-14T18:51:59.904Z,2.05
2024-01-14T18:54:06.773Z,1.77
2024-01-14T18:56:14.543Z,2.42
2024-01-14T18:58:24.629Z,3.38
2024-01-14T19:00:32.359Z,2.17
2024-01-14T19:02:37.422Z,4.13
2024-01-14T19:04:40.228Z,3.10
2024-01-14T19:06:48.609Z,3.00
2024-01-14T19:08:53.495Z,3.83
2024-01-14T19:10:58.732Z,2.08
2024-01-14T19:13:05.684Z,4.13
2024-01-14T19:15:10.363Z,3.15
2024-01-14T19:17:18.480Z,1.92
2024-01-14T19:19:23.879Z,3.13
2024-01-14T19:21:28.843Z,3.13
2024-01-14T19:23:36.580Z,3.80
2024-01-14T19:25:40.470Z,1.38
2024-01-14T19:27:45.858Z,1.63
2024-01-14T19:29:53.477Z,5.03
2024-01-14T19:31:59.647Z,1.40
2024-01-14T19:34:07.401Z,0.95
2024-01-14T19:36:13.187Z,1.55
2024-01-14T19:38:18.303Z,0.93
2024-01-14T19:40:23.277Z,2.13
2024-01-14T19:42:28.219Z,0.90
2024-01-14T19:44:33.563Z,5.07
2024-01-14T19:46:38.690Z,1.25
2024-01-14T19:48:43.732Z,7.15
2024-01-14T19:50:51.380Z,1.77
2024-01-14T19:52:53.766Z,2.30
2024-01-14T19:54:58.762Z,2.38
2024-01-14T19:57:05.837Z,3.50
2024-01-14T19:59:10.929Z,1.95
2024-01-14T20:01:15.884Z,1.70
2024-01-14T20:03:22.145Z,3.05
2024-01-14T20:05:27.267Z,2.75
2024-01-14T20:07:34.969Z,4.25
2024-01-14T20:09:40.173Z,1.60
2024-01-14T20:11:50.179Z,1.95
2024-01-14T20:13:55.140Z,2.88
2024-01-14T20:16:00.070Z,5.03
2024-01-14T20:18:05.501Z,5.45
2024-01-14T20:20:15.074Z,2.10
2024-01-14T20:22:20.206Z,5.75
2024-01-14T20:24:31.883Z,4.68
2024-01-14T20:26:36.955Z,1.65
2024-01-14T20:28:42.885Z,2.00
2024-01-14T20:30:48.228Z,2.50
2024-01-14T20:32:53.538Z,4.25
2024-01-14T20:34:58.417Z,6.80
2024-01-14T20:37:03.432Z,5.72
2024-01-14T20:39:09.907Z,1.05
2024-01-14T20:41:15.030Z,2.00
2024-01-14T20:43:19.948Z,0.80
2024-01-14T20:45:24.808Z,1.20
2024-01-14T20:47:27.292Z,2.28
2024-01-14T20:49:32.753Z,2.72
2024-01-14T20:51:38.361Z,7.55
2024-01-14T20:53:43.582Z,3.30
2024-01-14T20:55:48.616Z,10.40
2024-01-14T20:57:56.210Z,3.03
2024-01-14T20:59:58.548Z,8.40
2024-01-14T21:02:03.488Z,3.22
2024-01-14T21:04:08.708Z,5.72
2024-01-14T21:06:16.312Z,7.75
2024-01-14T21:08:22.756Z,3.33
2024-01-14T21:10:27.703Z,7.93
2024-01-14T21:12:32.653Z,3.25
2024-01-14T21:14:40.319Z,1.35
2024-01-14T21:16:45.428Z,1.73
2024-01-14T21:18:50.723Z,1.88
2024-01-14T21:20:56.054Z,8.90
2024-01-14T21:23:01.610Z,3.13
2024-01-14T21:25:04.397Z,2.08
2024-01-14T21:29:14.897Z,0.70
2024-01-14T21:31:22.822Z,3.80
2024-01-14T21:33:26.020Z,1.65
2024-01-14T21:35:30.994Z,2.33
2024-01-14T21:37:36.001Z,1.67
2024-01-14T21:39:41.057Z,4.63
2024-01-14T21:41:46.051Z,0.70
2024-01-14T21:43:48.531Z,1.25
2024-01-14T21:45:53.568Z,4.53
2024-01-14T21:48:01.188Z,0.80
2024-01-14T21:50:04.433Z,2.17
2024-01-14T21:52:10.080Z,2.40
2024-01-14T21:54:15.079Z,2.05
2024-01-14T21:56:19.952Z,12.25
2024-01-14T21:58:24.858Z,5.57
2024-01-14T22:00:29.757Z,2.58
2024-01-14T22:02:34.620Z,0.93
2024-01-14T22:04:43.157Z,7.57
2024-01-14T22:06:48.172Z,3.50
2024-01-14T22:08:50.822Z,2.58
2024-01-14T22:10:55.671Z,1.33
2024-01-14T22:13:00.650Z,8.77
2024-01-14T22:15:05.519Z,12.27
2024-01-14T22:17:10.414Z,2.78
2024-01-14T22:19:15.869Z,6.72
2024-01-14T22:21:23.365Z,7.15
2024-01-14T22:23:28.565Z,1.13
2024-01-14T22:25:33.436Z,5.47
2024-01-14T22:27:39.174Z,1.35
2024-01-14T22:29:45.087Z,3.50
2024-01-14T22:31:47.318Z,3.08
2024-01-14T22:33:52.694Z,0.85
2024-01-14T22:35:58.347Z,2.10
2024-01-14T22:38:06.304Z,6.38
2024-01-14T22:40:13.812Z,1.83
2024-01-14T22:42:18.654Z,1.83
2024-01-14T22:44:25.912Z,2.92
2024-01-14T22:46:33.429Z,3.30
2024-01-14T22:48:38.840Z,5.53
2024-01-14T22:50:44.065Z,4.28
2024-01-14T22:52:48.960Z,14.60
2024-01-14T22:54:56.451Z,3.83
2024-01-14T22:57:01.335Z,9.75
2024-01-14T22:59:04.225Z,5.18
2024-01-14T23:03:16.788Z,6.85
2024-01-14T23:05:23.766Z,3.63
2024-01-14T23:07:28.700Z,5.07
2024-01-14T23:09:34.254Z,4.82
2024-01-14T23:11:41.655Z,5.05
2024-01-14T23:13:46.772Z,7.60
2024-01-14T23:15:52.122Z,6.40
2024-01-14T23:17:57.222Z,11.05
2024-01-14T23:20:02.136Z,7.07
2024-01-14T23:22:07.366Z,1.90
2024-01-14T23:24:18.129Z,1.15
2024-01-14T23:26:23.199Z,8.90
2024-01-14T23:28:32.976Z,5.53
2024-01-14T23:30:38.669Z,6.40
2024-01-14T23:32:43.754Z,0.88
2024-01-14T23:34:48.934Z,4.35
2024-01-14T23:36:51.693Z,2.17
2024-01-14T23:38:56.547Z,7.45
2024-01-14T23:41:01.516Z,4.95
2024-01-14T23:43:03.906Z,9.05
2024-01-14T23:45:14.577Z,13.75
2024-01-14T23:47:20.892Z,6.85
2024-01-14T23:49:26.212Z,1.45
2024-01-14T23:51:31.170Z,2.72
2024-01-14T23:53:36.509Z,1.80
2024-01-14T23:55:41.660Z,3.05
2024-01-14T23:57:44.296Z,3.40
2024-01-14T23:59:49.284Z,2.25
